createdAt,value
2018-11-11T00:01:58.326Z,99137.83
2018-11-11T00:04:32.134Z,99143.25
2018-11-11T00:07:02.129Z,99141.23
2018-11-11T00:09:34.333Z,99146.71
2018-11-11T00:12:07.328Z,99152.61
2018-11-11T00:14:37.238Z,99147.07
2018-11-11T00:17:10.414Z,99147.52
2018-11-11T00:19:40.440Z,99145.92
2018-11-11T00:22:11.352Z,99142.61
2018-11-11T00:24:40.924Z,99141.64
2018-11-11T00:27:12.235Z,99149.31
2018-11-11T00:29:44.482Z,99151.52
2018-11-11T00:32:16.209Z,99144.77
2018-11-11T00:34:46.651Z,99152.48
2018-11-11T00:37:16.168Z,99153.33
2018-11-11T00:39:46.399Z,99156.73
2018-11-11T00:42:18.010Z,99163.33
2018-11-11T00:44:48.402Z,99157.43
2018-11-11T00:47:18.353Z,99163.94
2018-11-11T00:49:49.596Z,99161.36
2018-11-11T00:52:19.263Z,99167.58
2018-11-11T00:54:50.439Z,99170.27
2018-11-11T00:57:20.371Z,99163.56
2018-11-11T00:59:50.414Z,99165.14
2018-11-11T01:02:22.464Z,99162.59
2018-11-11T01:04:52.910Z,99164.41
2018-11-11T01:07:23.641Z,99163.30
2018-11-11T01:09:53.595Z,99159.04
2018-11-11T01:12:24.637Z,99155.58
2018-11-11T01:14:55.231Z,99158.24
2018-11-11T01:17:25.539Z,99153.49
2018-11-11T01:19:56.579Z,99156.59
2018-11-11T01:22:26.621Z,99168.08
2018-11-11T01:24:57.453Z,99160.41
2018-11-11T01:27:28.597Z,99164.95
2018-11-11T01:29:58.466Z,99163.88
2018-11-11T01:32:29.656Z,99158.02
2018-11-11T01:34:59.207Z,99165.11
2018-11-11T01:37:30.367Z,99160.74
2018-11-11T01:40:00.686Z,99153.44
2018-11-11T01:42:30.843Z,99149.30
2018-11-11T01:45:01.682Z,99155.19
2018-11-11T01:47:32.351Z,99161.64
2018-11-11T01:50:02.763Z,99154.09
2018-11-11T01:52:32.493Z,99151.16
2018-11-11T01:55:03.789Z,99156.33
2018-11-11T01:57:40.694Z,99153.83
2018-11-11T02:00:13.983Z,99155.11
2018-11-11T02:02:46.488Z,99153.39
2018-11-11T02:05:18.755Z,99158.39
2018-11-11T02:07:50.446Z,99153.77
2018-11-11T02:10:21.630Z,99153.29
2018-11-11T02:12:52.345Z,99153.72
2018-11-11T02:15:22.799Z,99152.12
2018-11-11T02:17:52.734Z,99153.02
2018-11-11T02:20:23.973Z,99155.11
2018-11-11T02:22:54.282Z,99153.88
2018-11-11T02:25:24.827Z,99148.70
2018-11-11T02:27:55.601Z,99147.43
2018-11-11T02:30:25.774Z,99147.22
2018-11-11T02:32:56.809Z,99147.91
2018-11-11T02:35:26.818Z,99149.67
2018-11-11T02:37:58.029Z,99145.00
2018-11-11T02:40:27.759Z,99143.33
2018-11-11T02:42:59.055Z,99141.16
2018-11-11T02:45:29.783Z,99144.61
2018-11-11T02:48:00.524Z,99149.73
2018-11-11T02:50:30.974Z,99147.65
2018-11-11T02:53:02.113Z,99150.58
2018-11-11T02:55:32.617Z,99148.44
2018-11-11T02:58:03.081Z,99152.28
2018-11-11T03:00:33.586Z,99148.45
2018-11-11T03:03:04.061Z,99152.81
2018-11-11T03:05:33.950Z,99153.60
2018-11-11T03:08:04.910Z,99165.56
2018-11-11T03:10:35.461Z,99170.35
2018-11-11T03:13:06.353Z,99169.55
2018-11-11T03:15:35.907Z,99175.84
2018-11-11T03:18:07.164Z,99178.03
2018-11-11T03:20:37.231Z,99184.83
2018-11-11T03:23:07.716Z,99189.94
2018-11-11T03:25:38.074Z,99187.34
2018-11-11T03:28:09.074Z,99187.82
2018-11-11T03:30:39.046Z,99189.10
2018-11-11T03:33:10.018Z,99196.43
2018-11-11T03:35:40.268Z,99197.66
2018-11-11T03:38:11.027Z,99206.59
2018-11-11T03:40:40.533Z,99214.54
2018-11-11T03:43:11.978Z,99217.19
2018-11-11T03:45:42.462Z,99207.53
2018-11-11T03:48:13.142Z,99212.55
2018-11-11T03:50:43.644Z,99214.30
2018-11-11T03:53:14.450Z,99211.23
2018-11-11T03:55:44.370Z,99206.92
2018-11-11T03:58:15.387Z,99203.05
2018-11-11T04:00:46.218Z,99202.61
2018-11-11T04:03:16.936Z,99206.92
2018-11-11T04:05:47.350Z,99209.77
2018-11-11T04:08:18.160Z,99203.03
2018-11-11T04:10:49.035Z,99206.59
2018-11-11T04:13:19.607Z,99207.73
2018-11-11T04:15:50.251Z,99214.58
2018-11-11T04:18:21.214Z,99213.45
2018-11-11T04:20:54.327Z,99212.22
2018-11-11T04:23:26.004Z,99215.97
2018-11-11T04:25:58.376Z,99222.44
2018-11-11T04:28:30.486Z,99232.13
2018-11-11T04:31:02.399Z,99235.20
2018-11-11T04:33:32.518Z,99234.88
2018-11-11T04:36:03.323Z,99238.33
2018-11-11T04:38:34.398Z,99237.47
2018-11-11T04:41:04.494Z,99235.30
2018-11-11T04:43:34.414Z,99241.72
2018-11-11T04:46:06.292Z,99238.33
2018-11-11T04:48:45.059Z,99243.00
2018-11-11T04:51:15.533Z,99246.75
2018-11-11T04:53:45.482Z,99242.95
2018-11-11T04:56:16.478Z,99243.77
2018-11-11T04:58:46.496Z,99247.16
2018-11-11T05:01:17.589Z,99259.50
2018-11-11T05:03:47.567Z,99259.94
2018-11-11T05:06:21.243Z,99261.64
2018-11-11T05:08:51.630Z,99263.68
2018-11-11T05:11:22.744Z,99257.72
2018-11-11T05:13:52.698Z,99258.61
2018-11-11T05:16:24.430Z,99266.33
2018-11-11T05:18:54.644Z,99273.21
2018-11-11T05:21:24.598Z,99281.64
2018-11-11T05:23:56.311Z,99281.26
2018-11-11T05:26:26.621Z,99283.77
2018-11-11T05:28:57.443Z,99281.26
2018-11-11T05:31:27.657Z,99286.96
2018-11-11T05:33:58.570Z,99291.73
2018-11-11T05:36:30.832Z,99292.16
2018-11-11T05:39:02.772Z,99297.56
2018-11-11T05:41:38.297Z,99304.84
2018-11-11T05:44:13.960Z,99310.88
2018-11-11T05:46:49.522Z,99313.89
2018-11-11T05:49:25.076Z,99327.08
2018-11-11T05:52:00.588Z,99335.05
2018-11-11T05:54:36.127Z,99335.05
2018-11-11T05:57:11.589Z,99329.09
2018-11-11T05:59:47.125Z,99333.39
2018-11-11T06:02:22.571Z,99341.43
2018-11-11T06:04:57.949Z,99350.83
2018-11-11T06:07:33.437Z,99346.92
2018-11-11T06:10:10.472Z,99344.75
2018-11-11T06:12:45.943Z,99351.57
2018-11-11T06:15:21.316Z,99365.69
2018-11-11T06:17:56.940Z,99361.51
2018-11-11T06:20:32.427Z,99362.78
2018-11-11T06:23:07.838Z,99367.04
2018-11-11T06:25:43.397Z,99368.70
2018-11-11T06:28:18.957Z,99374.20
2018-11-11T06:30:54.321Z,99379.66
2018-11-11T06:33:29.794Z,99379.08
2018-11-11T06:36:05.489Z,99375.78
2018-11-11T06:38:40.951Z,99379.69
2018-11-11T06:41:16.569Z,99388.17
2018-11-11T06:43:51.930Z,99387.73
2018-11-11T06:46:27.515Z,99389.86
2018-11-11T06:49:03.132Z,99392.92
2018-11-11T06:51:38.668Z,99384.84
2018-11-11T06:54:14.299Z,99389.09
2018-11-11T06:56:49.677Z,99391.53
2018-11-11T06:59:25.087Z,99391.95
2018-11-11T07:02:00.645Z,99391.06
2018-11-11T07:04:36.170Z,99388.05
2018-11-11T07:07:11.665Z,99384.95
2018-11-11T07:09:47.119Z,99386.53
2018-11-11T07:12:22.827Z,99381.85
2018-11-11T07:14:58.288Z,99385.77
2018-11-11T07:17:33.711Z,99401.98
2018-11-11T07:20:09.277Z,99404.45
2018-11-11T07:22:44.967Z,99401.47
2018-11-11T07:25:20.319Z,99400.08
2018-11-11T07:27:55.875Z,99401.35
2018-11-11T07:30:31.188Z,99408.13
2018-11-11T07:33:06.844Z,99408.50
2018-11-11T07:35:42.302Z,99410.56
2018-11-11T07:38:17.781Z,99410.94
2018-11-11T07:40:53.510Z,99410.68
2018-11-11T07:43:29.021Z,99414.13
2018-11-11T07:46:05.287Z,99423.50
2018-11-11T07:48:41.150Z,99423.97
2018-11-11T07:51:16.612Z,99423.89
2018-11-11T07:53:52.163Z,99416.18
2018-11-11T07:56:28.323Z,99415.75
2018-11-11T07:59:04.280Z,99416.90
2018-11-11T08:01:39.857Z,99431.38
2018-11-11T08:04:15.554Z,99435.17
2018-11-11T08:06:51.084Z,99450.05
2018-11-11T08:09:26.722Z,99443.69
2018-11-11T08:12:03.357Z,99443.66
2018-11-11T08:14:38.924Z,99445.69
2018-11-11T08:17:14.287Z,99442.23
2018-11-11T08:19:49.639Z,99436.20
2018-11-11T08:22:26.313Z,99441.70
2018-11-11T08:25:01.746Z,99451.08
2018-11-11T08:27:37.282Z,99454.36
2018-11-11T08:30:12.943Z,99459.37
2018-11-11T08:32:48.409Z,99464.06
2018-11-11T08:35:24.052Z,99480.69
2018-11-11T08:37:59.414Z,99473.41
2018-11-11T08:40:34.885Z,99470.80
2018-11-11T08:43:10.349Z,99470.75
2018-11-11T08:45:45.803Z,99469.84
2018-11-11T08:48:21.254Z,99475.25
2018-11-11T08:50:56.743Z,99481.88
2018-11-11T08:53:32.507Z,99477.03
2018-11-11T08:56:07.978Z,99476.27
2018-11-11T08:58:43.539Z,99486.52
2018-11-11T09:01:19.050Z,99493.71
2018-11-11T09:03:54.627Z,99506.52
2018-11-11T09:06:30.165Z,99508.59
2018-11-11T09:09:07.381Z,99506.41
2018-11-11T09:11:42.978Z,99508.97
2018-11-11T09:14:18.593Z,99507.64
2018-11-11T09:16:54.145Z,99514.26
2018-11-11T09:19:29.738Z,99512.36
2018-11-11T09:22:05.690Z,99516.23
2018-11-11T09:24:41.158Z,99511.77
2018-11-11T09:27:16.707Z,99502.80
2018-11-11T09:29:52.317Z,99508.39
2018-11-11T09:32:27.806Z,99513.30
2018-11-11T09:35:03.483Z,99526.55
2018-11-11T09:37:39.344Z,99520.52
2018-11-11T09:40:15.079Z,99510.90
2018-11-11T09:42:50.703Z,99518.31
2018-11-11T09:45:26.075Z,99519.87
2018-11-11T09:48:01.882Z,99518.09
2018-11-11T09:50:37.230Z,99511.59
2018-11-11T09:53:12.800Z,99517.82
2018-11-11T09:55:48.343Z,99531.05
2018-11-11T09:58:23.838Z,99528.08
2018-11-11T10:00:59.250Z,99537.33
2018-11-11T10:03:38.453Z,99550.75
2018-11-11T10:06:22.128Z,99550.45
2018-11-11T10:09:03.747Z,99566.99
2018-11-11T10:11:44.349Z,99576.58
2018-11-11T10:25:06.472Z,99578.39
2018-11-11T10:27:46.679Z,99574.09
2018-11-11T10:30:27.089Z,99570.52
2018-11-11T10:33:18.882Z,99564.95
2018-11-11T10:36:06.498Z,99574.39
2018-11-11T10:38:49.414Z,99568.45
2018-11-11T10:41:30.081Z,99576.91
2018-11-11T10:44:12.022Z,99574.16
2018-11-11T10:47:52.031Z,99585.29
2018-11-11T10:50:32.639Z,99584.80
2018-11-11T10:53:08.431Z,99587.16
2018-11-11T10:55:43.828Z,99590.45
2018-11-11T10:58:19.380Z,99597.35
2018-11-11T11:01:00.024Z,99593.98
2018-11-11T11:03:36.933Z,99597.78
2018-11-11T11:06:12.567Z,99593.80
2018-11-11T11:08:53.057Z,99595.77
2018-11-11T11:11:28.446Z,99579.70
2018-11-11T11:14:03.861Z,99582.95
2018-11-11T11:16:39.588Z,99583.13
2018-11-11T11:19:15.276Z,99585.70
2018-11-11T11:21:45.229Z,99587.59
2018-11-11T11:24:16.111Z,99582.92
2018-11-11T11:26:46.422Z,99592.48
2018-11-11T11:29:16.195Z,99601.05
2018-11-11T11:31:46.678Z,99605.72
2018-11-11T11:34:17.589Z,99612.23
2018-11-11T11:36:47.154Z,99611.52
2018-11-11T11:39:17.343Z,99609.57
2018-11-11T11:41:47.434Z,99605.84
2018-11-11T11:44:17.382Z,99607.25
2018-11-11T11:46:49.143Z,99611.41
2018-11-11T11:49:21.611Z,99607.49
2018-11-11T11:51:52.158Z,99607.86
2018-11-11T11:54:22.472Z,99603.92
2018-11-11T11:56:52.280Z,99601.14
2018-11-11T11:59:23.145Z,99608.94
2018-11-11T12:01:53.554Z,99608.78
2018-11-11T12:04:23.719Z,99602.94
2018-11-11T12:06:53.994Z,99608.95
2018-11-11T12:09:24.448Z,99609.86
2018-11-11T12:11:54.583Z,99607.23
2018-11-11T12:14:24.321Z,99618.14
2018-11-11T12:16:55.219Z,99620.83
2018-11-11T12:19:25.283Z,99620.52
2018-11-11T12:21:55.467Z,99627.06
2018-11-11T12:24:25.558Z,99617.98
2018-11-11T12:26:56.411Z,99619.30
2018-11-11T12:29:26.708Z,99613.23
2018-11-11T12:31:56.520Z,99622.13
2018-11-11T12:34:27.071Z,99620.42
2018-11-11T12:36:57.584Z,99623.23
2018-11-11T12:39:27.787Z,99629.52
2018-11-11T12:41:57.357Z,99631.43
2018-11-11T12:44:28.717Z,99634.56
2018-11-11T12:46:58.771Z,99645.28
2018-11-11T12:49:28.795Z,99654.69
2018-11-11T12:51:59.835Z,99653.92
2018-11-11T12:54:29.545Z,99654.91
2018-11-11T12:57:00.032Z,99651.24
2018-11-11T12:59:30.222Z,99653.25
2018-11-11T13:02:00.771Z,99659.30
2018-11-11T13:04:30.963Z,99666.86
2018-11-11T13:07:00.678Z,99662.44
2018-11-11T13:09:33.002Z,99675.80
2018-11-11T13:12:06.705Z,99670.33
2018-11-11T13:14:39.120Z,99674.91
2018-11-11T13:17:11.749Z,99674.20
2018-11-11T13:19:42.798Z,99666.26
2018-11-11T13:22:13.439Z,99670.53
2018-11-11T13:24:43.047Z,99670.59
2018-11-11T13:27:13.527Z,99672.36
2018-11-11T13:29:46.355Z,99679.77
2018-11-11T13:32:16.949Z,99683.21
2018-11-11T13:34:47.085Z,99686.20
2018-11-11T13:37:17.805Z,99687.59
2018-11-11T13:39:47.835Z,99688.83
2018-11-11T13:42:17.930Z,99691.94
2018-11-11T13:44:51.568Z,99692.00
2018-11-11T13:47:21.910Z,99688.04
2018-11-11T13:49:52.661Z,99696.28
2018-11-11T13:52:23.093Z,99695.55
2018-11-11T13:54:53.391Z,99697.02
2018-11-11T13:57:24.079Z,99700.91
2018-11-11T13:59:56.654Z,99704.40
2018-11-11T14:02:27.999Z,99696.22
2018-11-11T14:04:58.781Z,99697.97
2018-11-11T14:07:29.029Z,99707.02
2018-11-11T14:10:01.686Z,99713.92
2018-11-11T14:12:32.974Z,99720.03
2018-11-11T14:15:04.191Z,99731.20
2018-11-11T14:17:37.710Z,99731.46
2018-11-11T14:20:11.673Z,99730.41
2018-11-11T14:22:43.985Z,99730.30
2018-11-11T14:25:18.694Z,99728.04
2018-11-11T14:27:49.094Z,99727.72
2018-11-11T14:30:22.505Z,99723.83
2018-11-11T14:32:53.835Z,99717.19
2018-11-11T14:35:26.091Z,99727.88
2018-11-11T14:37:56.091Z,99734.25
2018-11-11T14:40:28.558Z,99738.73
2018-11-11T14:42:58.585Z,99743.02
2018-11-11T14:45:33.971Z,99752.18
2018-11-11T14:48:05.089Z,99759.16
2018-11-11T14:50:38.370Z,99761.86
2018-11-11T14:53:10.401Z,99762.11
2018-11-11T14:55:41.210Z,99770.36
2018-11-11T14:58:14.709Z,99780.75
2018-11-11T15:00:47.379Z,99770.20
2018-11-11T15:03:18.543Z,99767.64
2018-11-11T15:05:48.719Z,99781.66
2018-11-11T15:08:18.959Z,99789.89
2018-11-11T15:10:48.915Z,99790.11
2018-11-11T15:13:19.471Z,99785.06
2018-11-11T15:15:49.246Z,99790.73
2018-11-11T15:18:20.492Z,99794.57
2018-11-11T15:20:50.350Z,99797.95
2018-11-11T15:23:20.620Z,99804.42
2018-11-11T15:28:27.517Z,99810.98
2018-11-11T15:30:57.907Z,99804.65
2018-11-11T15:33:27.512Z,99803.84
2018-11-11T15:35:58.388Z,99813.72
2018-11-11T15:38:29.485Z,99818.16
2018-11-11T15:41:01.651Z,99825.13
2018-11-11T15:43:32.425Z,99818.80
2018-11-11T15:51:51.541Z,99811.55
2018-11-11T15:54:22.643Z,99809.42
2018-11-11T15:59:21.043Z,99810.59
2018-11-11T16:01:52.454Z,99816.73
2018-11-11T16:04:23.576Z,99825.30
2018-11-11T16:06:54.662Z,99826.75
2018-11-11T16:09:26.687Z,99832.34
2018-11-11T16:11:58.024Z,99834.52
2018-11-11T16:14:27.885Z,99835.85
2018-11-11T16:16:58.282Z,99837.20
2018-11-11T16:19:29.411Z,99836.85
2018-11-11T16:21:59.376Z,99834.78
2018-11-11T16:24:30.247Z,99829.70
2018-11-11T16:27:00.443Z,99832.73
2018-11-11T16:29:31.122Z,99837.88
2018-11-11T16:32:01.501Z,99843.45
2018-11-11T16:34:31.146Z,99856.20
2018-11-11T16:37:01.012Z,99854.93
2018-11-11T16:39:37.807Z,99858.34
2018-11-11T16:42:09.768Z,99857.08
2018-11-11T16:44:42.480Z,99860.06
2018-11-11T16:47:12.751Z,99859.23
2018-11-11T16:49:43.125Z,99862.61
2018-11-11T16:52:16.163Z,99855.41
2018-11-11T16:54:46.995Z,99863.05
2018-11-11T16:57:16.760Z,99860.07
2018-11-11T16:59:47.495Z,99856.67
2018-11-11T17:02:18.474Z,99854.14
2018-11-11T17:10:13.051Z,99849.88
2018-11-11T17:12:44.354Z,99854.57
2018-11-11T17:15:20.103Z,99848.19
2018-11-11T17:17:50.544Z,99850.75
2018-11-11T17:20:24.520Z,99852.45
2018-11-11T17:23:02.808Z,99858.38
2018-11-11T17:25:35.694Z,99855.41
2018-11-11T17:28:06.608Z,99855.42
2018-11-11T17:30:43.214Z,99858.38
2018-11-11T17:33:13.423Z,99860.51
2018-11-11T17:35:44.691Z,99864.73
2018-11-11T17:38:14.772Z,99864.31
2018-11-11T17:40:46.936Z,99867.27
2018-11-11T17:43:17.683Z,99866.84
2018-11-11T17:45:50.360Z,99867.28
2018-11-11T17:48:20.984Z,99866.83
2018-11-11T17:50:51.535Z,99870.67
2018-11-11T17:53:22.509Z,99877.86
2018-11-11T17:55:56.687Z,99872.78
2018-11-11T17:58:28.189Z,99868.52
2018-11-11T18:00:58.471Z,99868.11
2018-11-11T18:03:29.912Z,99870.66
2018-11-11T18:06:00.220Z,99863.01
2018-11-11T18:08:30.331Z,99868.09
2018-11-11T18:11:00.834Z,99873.16
2018-11-11T18:13:30.955Z,99875.28
2018-11-11T18:16:01.318Z,99865.11
2018-11-11T18:18:31.171Z,99863.83
2018-11-11T18:21:01.968Z,99871.87
2018-11-11T18:23:32.265Z,99872.33
2018-11-11T18:26:09.520Z,99879.09
2018-11-11T18:28:42.264Z,99877.83
2018-11-11T18:31:13.575Z,99877.40
2018-11-11T18:33:44.118Z,99876.11
2018-11-11T18:36:14.602Z,99875.70
2018-11-11T18:38:44.846Z,99876.97
2018-11-11T18:41:15.603Z,99874.45
2018-11-11T18:43:51.371Z,99874.83
2018-11-11T18:46:21.333Z,99880.74
2018-11-11T18:48:52.037Z,99882.86
2018-11-11T18:51:22.323Z,99890.88
2018-11-11T18:53:52.457Z,99887.07
2018-11-11T18:56:22.907Z,99882.80
2018-11-11T18:58:53.785Z,99877.30
2018-11-11T19:01:23.573Z,99877.72
2018-11-11T19:03:53.354Z,99885.73
2018-11-11T19:06:24.473Z,99878.09
2018-11-11T19:08:57.564Z,99886.16
2018-11-11T19:11:28.881Z,99891.68
2018-11-11T19:13:58.959Z,99898.02
2018-11-11T19:16:29.818Z,99906.50
2018-11-11T19:19:07.569Z,99903.91
2018-11-11T19:21:37.893Z,99912.77
2018-11-11T19:24:10.923Z,99907.23
2018-11-11T19:26:44.796Z,99900.45
2018-11-11T19:29:17.136Z,99890.71
2018-11-11T19:31:49.558Z,99894.94
2018-11-11T19:34:21.471Z,99903.40
2018-11-11T19:39:48.204Z,99906.36
2018-11-11T19:42:23.935Z,99899.98
2018-11-11T19:44:58.902Z,99892.37
2018-11-11T19:47:31.146Z,99892.39
2018-11-11T19:50:02.275Z,99890.23
2018-11-11T19:52:32.927Z,99894.47
2018-11-11T19:55:04.530Z,99899.53
2018-11-11T19:57:35.212Z,99895.71
2018-11-11T20:00:06.158Z,99902.08
2018-11-11T20:02:36.036Z,99903.35
2018-11-11T20:05:10.248Z,99908.84
2018-11-11T20:07:43.077Z,99903.81
2018-11-11T20:10:14.908Z,99901.27
2018-11-11T20:12:46.251Z,99905.92
2018-11-11T20:15:18.374Z,99906.42
2018-11-11T20:17:53.860Z,99917.92
2018-11-11T20:20:25.208Z,99926.39
2018-11-11T20:22:54.812Z,99931.43
2018-11-11T20:25:24.955Z,99928.91
2018-11-11T20:27:59.126Z,99920.42
2018-11-11T20:30:32.653Z,99914.06
2018-11-11T20:33:05.395Z,99917.05
2018-11-11T20:35:36.225Z,99919.16
2018-11-11T20:38:12.546Z,99921.28
2018-11-11T20:40:43.127Z,99914.91
2018-11-11T20:43:14.416Z,99918.28
2018-11-11T20:45:44.306Z,99918.67
2018-11-11T20:48:14.955Z,99919.52
2018-11-11T20:50:45.226Z,99927.14
2018-11-11T20:53:15.673Z,99929.24
2018-11-11T20:55:47.120Z,99931.35
2018-11-11T20:58:16.951Z,99936.44
2018-11-11T21:00:47.239Z,99932.63
2018-11-11T21:03:17.673Z,99932.16
2018-11-11T21:05:48.508Z,99934.27
2018-11-11T21:08:19.519Z,99932.12
2018-11-11T21:10:52.705Z,99935.08
2018-11-11T21:13:24.036Z,99943.08
2018-11-11T21:15:56.427Z,99948.60
2018-11-11T21:18:26.989Z,99944.34
2018-11-11T21:20:57.153Z,99951.12
2018-11-11T21:23:28.687Z,99954.05
2018-11-11T21:25:58.690Z,99943.02
2018-11-11T21:28:31.231Z,99935.81
2018-11-11T21:31:03.269Z,99932.08
2018-11-11T21:33:34.555Z,99948.13
2018-11-11T21:36:04.327Z,99945.57
2018-11-11T21:38:38.156Z,99950.66
2018-11-11T21:41:10.132Z,99954.05
2018-11-11T21:43:41.964Z,99955.73
2018-11-11T21:46:12.547Z,99953.14
2018-11-11T21:48:42.900Z,99957.45
2018-11-11T21:51:13.353Z,99951.56
2018-11-11T21:53:43.810Z,99952.43
2018-11-11T21:56:14.129Z,99949.45
2018-11-11T21:58:44.613Z,99947.72
2018-11-11T22:01:14.808Z,99954.03
2018-11-11T22:03:45.397Z,99948.91
2018-11-11T22:06:15.617Z,99948.01
2018-11-11T22:08:45.970Z,99943.70
2018-11-11T22:11:16.465Z,99943.20
2018-11-11T22:13:47.031Z,99954.98
2018-11-11T22:16:19.396Z,99952.03
2018-11-11T22:18:51.800Z,99951.20
2018-11-11T22:21:24.594Z,99950.31
2018-11-11T22:23:55.265Z,99950.70
2018-11-11T22:26:25.457Z,99945.11
2018-11-11T22:28:55.909Z,99944.32
2018-11-11T22:31:26.372Z,99941.34
2018-11-11T22:33:57.970Z,99937.05
2018-11-11T22:36:30.805Z,99934.92
2018-11-11T22:39:10.811Z,99941.23
2018-11-11T22:41:41.443Z,99935.72
2018-11-11T22:44:11.548Z,99933.18
2018-11-11T22:46:42.452Z,99937.41
2018-11-11T22:49:12.610Z,99935.75
2018-11-11T22:51:43.346Z,99927.30
2018-11-11T22:54:14.026Z,99928.58
2018-11-11T22:56:49.720Z,99931.12
2018-11-11T22:59:20.628Z,99942.09
2018-11-11T23:01:52.370Z,99934.89
2018-11-11T23:04:22.996Z,99930.20
2018-11-11T23:06:54.627Z,99927.18
2018-11-11T23:09:27.354Z,99928.41
2018-11-11T23:12:00.582Z,99943.23
2018-11-11T23:14:30.931Z,99937.75
2018-11-11T23:17:00.546Z,99943.69
2018-11-11T23:19:30.487Z,99939.91
2018-11-11T23:22:01.364Z,99942.41
2018-11-11T23:24:31.972Z,99944.09
2018-11-11T23:27:02.384Z,99944.95
2018-11-11T23:29:32.667Z,99946.22
2018-11-11T23:32:03.101Z,99942.86
2018-11-11T23:34:33.384Z,99944.54
2018-11-11T23:37:03.959Z,99948.77
2018-11-11T23:39:34.432Z,99944.92
2018-11-11T23:42:05.078Z,99940.38
2018-11-11T23:44:35.925Z,99941.27
2018-11-11T23:47:06.181Z,99936.16
2018-11-11T23:49:36.475Z,99930.70
2018-11-11T23:52:07.174Z,99928.13
2018-11-11T23:54:37.667Z,99936.58
2018-11-11T23:57:11.281Z,99939.46
2018-11-11T23:59:41.756Z,99947.91
